sensor_id;sensor_type;location;lat;lon;timestamp;P1;P2;P0
49686;PMS5003;36064;38.180;-122.272;2022-12-18T00:00:00;4.0;4.0;
49686;PMS5003;36064;38.180;-122.272;2022-12-18T00:05:00;5.0;4.6;
49686;PMS5003;36064;38.180;-122.272;2022-12-18T00:10:04;4.6;4.6;
49686;PMS5003;36064;38.180;-122.272;2022-12-18T00:15:00;5.8;5.6;
49686;PMS5003;36064;38.180;-122.272;2022-12-18T00:20:00;5.6;4.4;
49686;PMS5003;36064;38.180;-122.272;2022-12-18T00:25:00;6.0;5.0;
49686;PMS5003;36064;38.180;-122.272;2022-12-18T00:30:00;6.6;6.2;
49686;PMS5003;36064;38.180;-122.272;2022-12-18T00:35:00;7.2;6.6;
49686;PMS5003;36064;38.180;-122.272;2022-12-18T00:40:00;8.4;7.0;
49686;PMS5003;36064;38.180;-122.272;2022-12-18T00:45:00;6.8;6.8;
49686;PMS5003;36064;38.180;-122.272;2022-12-18T00:50:01;8.2;6.8;
49686;PMS5003;36064;38.180;-122.272;2022-12-18T00:55:00;10.4;8.4;
49686;PMS5003;36064;38.180;-122.272;2022-12-18T01:00:00;15.0;12.4;
49686;PMS5003;36064;38.180;-122.272;2022-12-18T01:05:00;11.4;10.0;
49686;PMS5003;36064;38.180;-122.272;2022-12-18T01:10:00;13.8;12.4;
49686;PMS5003;36064;38.180;-122.272;2022-12-18T01:15:00;11.8;10.2;
49686;PMS5003;36064;38.180;-122.272;2022-12-18T01:20:00;13.4;12.6;
49686;PMS5003;36064;38.180;-122.272;2022-12-18T01:25:01;15.2;14.0;
49686;PMS5003;36064;38.180;-122.272;2022-12-18T01:30:00;12.8;12.4;
49686;PMS5003;36064;38.180;-122.272;2022-12-18T01:35:01;12.4;11.8;
49686;PMS5003;36064;38.180;-122.272;2022-12-18T01:40:00;14.2;14.8;
49686;PMS5003;36064;38.180;-122.272;2022-12-18T01:45:02;15.0;14.8;
49686;PMS5003;36064;38.180;-122.272;2022-12-18T01:50:02;14.2;14.2;
49686;PMS5003;36064;38.180;-122.272;2022-12-18T01:55:01;13.6;12.6;
49686;PMS5003;36064;38.180;-122.272;2022-12-18T02:00:03;13.6;13.2;
49686;PMS5003;36064;38.180;-122.272;2022-12-18T02:05:06;14.4;11.6;
49686;PMS5003;36064;38.180;-122.272;2022-12-18T02:10:02;14.0;13.2;
49686;PMS5003;36064;38.180;-122.272;2022-12-18T02:15:02;18.4;17.2;
49686;PMS5003;36064;38.180;-122.272;2022-12-18T02:20:03;17.4;17.0;
49686;PMS5003;36064;38.180;-122.272;2022-12-18T02:25:05;16.6;15.2;
49686;PMS5003;36064;38.180;-122.272;2022-12-18T02:30:01;19.8;18.8;
49686;PMS5003;36064;38.180;-122.272;2022-12-18T02:35:01;19.2;17.8;
49686;PMS5003;36064;38.180;-122.272;2022-12-18T02:40:01;18.2;17.6;
49686;PMS5003;36064;38.180;-122.272;2022-12-18T02:45:00;20.4;19.4;
49686;PMS5003;36064;38.180;-122.272;2022-12-18T02:50:03;21.8;21.4;
49686;PMS5003;36064;38.180;-122.272;2022-12-18T02:55:04;24.2;23.2;
49686;PMS5003;36064;38.180;-122.272;2022-12-18T03:00:01;24.6;23.6;
49686;PMS5003;36064;38.180;-122.272;2022-12-18T03:05:02;24.0;23.0;
49686;PMS5003;36064;38.180;-122.272;2022-12-18T03:10:00;26.4;24.4;
49686;PMS5003;36064;38.180;-122.272;2022-12-18T03:15:02;33.0;30.4;
49686;PMS5003;36064;38.180;-122.272;2022-12-18T03:20:03;28.2;26.4;
49686;PMS5003;36064;38.180;-122.272;2022-12-18T03:25:01;30.6;28.0;
49686;PMS5003;36064;38.180;-122.272;2022-12-18T03:30:01;33.6;29.8;
49686;PMS5003;36064;38.180;-122.272;2022-12-18T03:35:01;31.4;29.2;
49686;PMS5003;36064;38.180;-122.272;2022-12-18T03:40:00;32.0;28.8;
49686;PMS5003;36064;38.180;-122.272;2022-12-18T03:45:02;28.0;26.8;
49686;PMS5003;36064;38.180;-122.272;2022-12-18T03:50:03;31.8;29.8;
49686;PMS5003;36064;38.180;-122.272;2022-12-18T03:55:00;28.8;27.0;
49686;PMS5003;36064;38.180;-122.272;2022-12-18T04:00:01;28.4;26.4;
49686;PMS5003;36064;38.180;-122.272;2022-12-18T04:05:01;31.4;29.8;
49686;PMS5003;36064;38.180;-122.272;2022-12-18T04:10:00;31.8;30.0;
49686;PMS5003;36064;38.180;-122.272;2022-12-18T04:15:00;32.6;31.0;
49686;PMS5003;36064;38.180;-122.272;2022-12-18T04:20:00;40.6;34.0;
49686;PMS5003;36064;38.180;-122.272;2022-12-18T04:25:00;46.2;37.6;
49686;PMS5003;36064;38.180;-122.272;2022-12-18T04:30:00;46.6;38.2;
49686;PMS5003;36064;38.180;-122.272;2022-12-18T04:35:00;45.2;37.21;
49686;PMS5003;36064;38.180;-122.272;2022-12-18T04:40:00;41.6;36.2;
49686;PMS5003;36064;38.180;-122.272;2022-12-18T04:45:00;39.6;35.0;
49686;PMS5003;36064;38.180;-122.272;2022-12-18T04:50:00;36.2;33.4;
49686;PMS5003;36064;38.180;-122.272;2022-12-18T04:55:00;36.4;32.2;
49686;PMS5003;36064;38.180;-122.272;2022-12-18T05:00:00;41.0;36.0;
49686;PMS5003;36064;38.180;-122.272;2022-12-18T05:05:00;48.8;40.8;
49686;PMS5003;36064;38.180;-122.272;2022-12-18T05:10:00;51.8;43.0;
49686;PMS5003;36064;38.180;-122.272;2022-12-18T05:15:00;48.2;39.6;
49686;PMS5003;36064;38.180;-122.272;2022-12-18T05:20:00;43.4;36.0;
49686;PMS5003;36064;38.180;-122.272;2022-12-18T05:25:00;43.4;36.6;
49686;PMS5003;36064;38.180;-122.272;2022-12-18T05:30:00;33.2;30.0;
49686;PMS5003;36064;38.180;-122.272;2022-12-18T05:35:00;39.2;33.2;
49686;PMS5003;36064;38.180;-122.272;2022-12-18T05:40:01;43.2;36.0;
49686;PMS5003;36064;38.180;-122.272;2022-12-18T05:45:00;40.0;35.2;
49686;PMS5003;36064;38.180;-122.272;2022-12-18T05:50:00;35.0;31.4;
49686;PMS5003;36064;38.180;-122.272;2022-12-18T05:55:00;34.2;31.4;
49686;PMS5003;36064;38.180;-122.272;2022-12-18T06:00:01;38.4;32.8;
49686;PMS5003;36064;38.180;-122.272;2022-12-18T06:05:00;39.6;33.6;
49686;PMS5003;36064;38.180;-122.272;2022-12-18T06:10:00;39.8;33.0;
49686;PMS5003;36064;38.180;-122.272;2022-12-18T06:15:00;36.0;31.6;
49686;PMS5003;36064;38.180;-122.272;2022-12-18T06:20:00;31.8;29.2;
49686;PMS5003;36064;38.180;-122.272;2022-12-18T06:25:00;36.2;32.6;
49686;PMS5003;36064;38.180;-122.272;2022-12-18T06:30:00;37.4;32.6;
49686;PMS5003;36064;38.180;-122.272;2022-12-18T06:35:00;44.2;38.0;
49686;PMS5003;36064;38.180;-122.272;2022-12-18T06:40:00;48.0;40.6;
49686;PMS5003;36064;38.180;-122.272;2022-12-18T06:45:00;51.8;42.2;
49686;PMS5003;36064;38.180;-122.272;2022-12-18T06:50:00;55.8;44.6;
49686;PMS5003;36064;38.180;-122.272;2022-12-18T06:55:00;53.2;42.4;
49686;PMS5003;36064;38.180;-122.272;2022-12-18T07:00:00;52.4;43.2;
49686;PMS5003;36064;38.180;-122.272;2022-12-18T07:05:01;53.2;42.2;
49686;PMS5003;36064;38.180;-122.272;2022-12-18T07:10:00;46.4;38.4;
49686;PMS5003;36064;38.180;-122.272;2022-12-18T07:15:00;45.0;39.0;
49686;PMS5003;36064;38.180;-122.272;2022-12-18T07:20:01;45.4;39.0;
49686;PMS5003;36064;38.180;-122.272;2022-12-18T07:25:00;41.0;35.4;
49686;PMS5003;36064;38.180;-122.272;2022-12-18T07:30:00;39.4;34.4;
49686;PMS5003;36064;38.180;-122.272;2022-12-18T07:35:01;40.0;33.8;
49686;PMS5003;36064;38.180;-122.272;2022-12-18T07:40:00;39.2;33.6;
49686;PMS5003;36064;38.180;-122.272;2022-12-18T07:45:00;39.4;34.2;
49686;PMS5003;36064;38.180;-122.272;2022-12-18T07:50:00;34.4;31.0;
49686;PMS5003;36064;38.180;-122.272;2022-12-18T07:55:00;32.2;30.0;
49686;PMS5003;36064;38.180;-122.272;2022-12-18T08:00:00;30.4;28.0;
49686;PMS5003;36064;38.180;-122.272;2022-12-18T08:05:00;29.8;26.8;
49686;PMS5003;36064;38.180;-122.272;2022-12-18T08:10:00;27.8;26.4;
49686;PMS5003;36064;38.180;-122.272;2022-12-18T08:15:00;30.4;27.0;
49686;PMS5003;36064;38.180;-122.272;2022-12-18T08:20:00;26.8;24.0;
49686;PMS5003;36064;38.180;-122.272;2022-12-18T08:25:00;33.6;30.8;
49686;PMS5003;36064;38.180;-122.272;2022-12-18T08:30:00;37.6;33.6;
49686;PMS5003;36064;38.180;-122.272;2022-12-18T08:35:00;31.6;28.8;
49686;PMS5003;36064;38.180;-122.272;2022-12-18T08:40:00;31.0;27.8;
49686;PMS5003;36064;38.180;-122.272;2022-12-18T08:45:00;30.8;29.0;
49686;PMS5003;36064;38.180;-122.272;2022-12-18T08:50:00;33.0;30.4;
49686;PMS5003;36064;38.180;-122.272;2022-12-18T08:55:00;33.8;29.6;
49686;PMS5003;36064;38.180;-122.272;2022-12-18T09:00:00;30.8;27.8;
49686;PMS5003;36064;38.180;-122.272;2022-12-18T09:05:00;27.4;24.4;
49686;PMS5003;36064;38.180;-122.272;2022-12-18T09:10:00;21.4;20.6;
49686;PMS5003;36064;38.180;-122.272;2022-12-18T09:15:00;23.2;21.0;
49686;PMS5003;36064;38.180;-122.272;2022-12-18T09:20:00;25.2;22.2;
49686;PMS5003;36064;38.180;-122.272;2022-12-18T09:25:00;27.0;26.6;
49686;PMS5003;36064;38.180;-122.272;2022-12-18T09:30:00;26.6;23.8;
49686;PMS5003;36064;38.180;-122.272;2022-12-18T09:35:00;18.0;16.4;
49686;PMS5003;36064;38.180;-122.272;2022-12-18T09:40:00;14.4;13.6;
49686;PMS5003;36064;38.180;-122.272;2022-12-18T09:45:00;11.2;11.0;
49686;PMS5003;36064;38.180;-122.272;2022-12-18T09:50:01;18.6;16.6;
49686;PMS5003;36064;38.180;-122.272;2022-12-18T09:55:01;15.2;14.8;
49686;PMS5003;36064;38.180;-122.272;2022-12-18T10:00:03;12.2;11.8;
49686;PMS5003;36064;38.180;-122.272;2022-12-18T10:05:04;21.2;20.0;
49686;PMS5003;36064;38.180;-122.272;2022-12-18T10:10:02;21.4;18.8;
49686;PMS5003;36064;38.180;-122.272;2022-12-18T10:15:02;20.6;19.4;
49686;PMS5003;36064;38.180;-122.272;2022-12-18T10:20:01;17.4;14.0;
49686;PMS5003;36064;38.180;-122.272;2022-12-18T10:25:01;22.4;19.4;
49686;PMS5003;36064;38.180;-122.272;2022-12-18T10:30:00;27.6;26.0;
49686;PMS5003;36064;38.180;-122.272;2022-12-18T10:35:00;22.8;21.0;
49686;PMS5003;36064;38.180;-122.272;2022-12-18T10:40:09;22.8;21.8;
49686;PMS5003;36064;38.180;-122.272;2022-12-18T10:45:01;23.6;21.2;
49686;PMS5003;36064;38.180;-122.272;2022-12-18T10:50:00;27.2;24.2;
49686;PMS5003;36064;38.180;-122.272;2022-12-18T10:55:02;30.6;26.0;
49686;PMS5003;36064;38.180;-122.272;2022-12-18T11:00:13;21.0;19.2;
49686;PMS5003;36064;38.180;-122.272;2022-12-18T11:05:01;18.6;17.6;
49686;PMS5003;36064;38.180;-122.272;2022-12-18T11:10:03;16.0;13.4;
49686;PMS5003;36064;38.180;-122.272;2022-12-18T11:15:00;14.2;13.6;
49686;PMS5003;36064;38.180;-122.272;2022-12-18T11:20:01;13.0;10.8;
49686;PMS5003;36064;38.180;-122.272;2022-12-18T11:25:01;12.4;11.8;
49686;PMS5003;36064;38.180;-122.272;2022-12-18T11:30:07;17.2;15.8;
49686;PMS5003;36064;38.180;-122.272;2022-12-18T11:35:04;35.4;29.4;
49686;PMS5003;36064;38.180;-122.272;2022-12-18T11:40:03;38.0;33.6;
49686;PMS5003;36064;38.180;-122.272;2022-12-18T11:45:01;39.4;34.8;
49686;PMS5003;36064;38.180;-122.272;2022-12-18T11:50:01;39.2;33.8;
49686;PMS5003;36064;38.180;-122.272;2022-12-18T11:55:01;37.6;32.8;
49686;PMS5003;36064;38.180;-122.272;2022-12-18T12:00:02;31.0;28.4;
49686;PMS5003;36064;38.180;-122.272;2022-12-18T12:05:04;18.0;17.6;
49686;PMS5003;36064;38.180;-122.272;2022-12-18T12:10:03;22.6;21.4;
49686;PMS5003;36064;38.180;-122.272;2022-12-18T12:15:03;20.8;18.8;
49686;PMS5003;36064;38.180;-122.272;2022-12-18T12:20:02;22.0;20.8;
49686;PMS5003;36064;38.180;-122.272;2022-12-18T12:25:04;17.2;16.0;
49686;PMS5003;36064;38.180;-122.272;2022-12-18T12:30:02;17.6;13.8;
49686;PMS5003;36064;38.180;-122.272;2022-12-18T12:35:05;16.2;14.0;
49686;PMS5003;36064;38.180;-122.272;2022-12-18T12:40:01;17.8;15.4;
49686;PMS5003;36064;38.180;-122.272;2022-12-18T12:45:01;15.8;15.4;
49686;PMS5003;36064;38.180;-122.272;2022-12-18T12:50:01;18.0;14.0;
49686;PMS5003;36064;38.180;-122.272;2022-12-18T12:55:00;17.8;16.0;
49686;PMS5003;36064;38.180;-122.272;2022-12-18T13:00:02;17.4;16.0;
49686;PMS5003;36064;38.180;-122.272;2022-12-18T13:05:03;18.4;17.2;
49686;PMS5003;36064;38.180;-122.272;2022-12-18T13:20:09;22.2;20.4;
49686;PMS5003;36064;38.180;-122.272;2022-12-18T13:25:00;24.8;21.4;
49686;PMS5003;36064;38.180;-122.272;2022-12-18T13:30:00;23.0;21.4;
49686;PMS5003;36064;38.180;-122.272;2022-12-18T13:40:00;23.0;18.8;
49686;PMS5003;36064;38.180;-122.272;2022-12-18T13:45:00;28.6;27.0;
49686;PMS5003;36064;38.180;-122.272;2022-12-18T13:50:00;25.8;24.0;
49686;PMS5003;36064;38.180;-122.272;2022-12-18T13:55:01;26.2;22.2;
49686;PMS5003;36064;38.180;-122.272;2022-12-18T14:05:01;24.4;22.0;
49686;PMS5003;36064;38.180;-122.272;2022-12-18T14:10:00;27.8;25.8;
49686;PMS5003;36064;38.180;-122.272;2022-12-18T14:15:00;23.6;19.8;
49686;PMS5003;36064;38.180;-122.272;2022-12-18T14:20:00;23.2;19.0;
49686;PMS5003;36064;38.180;-122.272;2022-12-18T14:30:00;27.4;25.6;
49686;PMS5003;36064;38.180;-122.272;2022-12-18T14:35:12;24.0;19.0;
49686;PMS5003;36064;38.180;-122.272;2022-12-18T14:40:02;25.2;23.2;
49686;PMS5003;36064;38.180;-122.272;2022-12-18T14:50:00;28.2;26.6;
49686;PMS5003;36064;38.180;-122.272;2022-12-18T14:55:00;29.2;25.2;
49686;PMS5003;36064;38.180;-122.272;2022-12-18T15:00:03;24.2;21.4;
49686;PMS5003;36064;38.180;-122.272;2022-12-18T15:05:01;23.0;21.6;
49686;PMS5003;36064;38.180;-122.272;2022-12-18T15:10:02;20.0;17.8;
49686;PMS5003;36064;38.180;-122.272;2022-12-18T15:15:00;18.4;17.4;
49686;PMS5003;36064;38.180;-122.272;2022-12-18T15:20:01;21.4;20.4;
49686;PMS5003;36064;38.180;-122.272;2022-12-18T15:25:00;30.03;29.22;
49686;PMS5003;36064;38.180;-122.272;2022-12-18T15:30:10;25.0;22.2;
49686;PMS5003;36064;38.180;-122.272;2022-12-18T15:35:02;27.0;25.2;
49686;PMS5003;36064;38.180;-122.272;2022-12-18T15:40:00;26.0;25.2;
49686;PMS5003;36064;38.180;-122.272;2022-12-18T15:45:02;31.0;29.4;
49686;PMS5003;36064;38.180;-122.272;2022-12-18T15:50:00;32.6;28.6;
49686;PMS5003;36064;38.180;-122.272;2022-12-18T15:55:00;29.6;29.0;
49686;PMS5003;36064;38.180;-122.272;2022-12-18T16:00:00;29.8;27.8;
49686;PMS5003;36064;38.180;-122.272;2022-12-18T16:05:00;25.6;22.8;
49686;PMS5003;36064;38.180;-122.272;2022-12-18T16:10:01;36.0;26.0;
49686;PMS5003;36064;38.180;-122.272;2022-12-18T16:15:00;36.0;31.2;
49686;PMS5003;36064;38.180;-122.272;2022-12-18T16:20:00;26.2;23.4;
49686;PMS5003;36064;38.180;-122.272;2022-12-18T16:25:00;22.6;20.0;
49686;PMS5003;36064;38.180;-122.272;2022-12-18T16:30:00;13.0;12.0;
49686;PMS5003;36064;38.180;-122.272;2022-12-18T16:35:00;16.6;14.6;
49686;PMS5003;36064;38.180;-122.272;2022-12-18T16:40:01;15.2;14.8;
49686;PMS5003;36064;38.180;-122.272;2022-12-18T16:45:01;12.6;11.2;
49686;PMS5003;36064;38.180;-122.272;2022-12-18T16:50:00;15.6;15.0;
49686;PMS5003;36064;38.180;-122.272;2022-12-18T16:55:00;16.0;15.2;
49686;PMS5003;36064;38.180;-122.272;2022-12-18T17:00:00;14.0;13.0;
49686;PMS5003;36064;38.180;-122.272;2022-12-18T17:05:00;17.0;15.2;
49686;PMS5003;36064;38.180;-122.272;2022-12-18T17:10:00;19.4;19.0;
49686;PMS5003;36064;38.180;-122.272;2022-12-18T17:15:00;19.8;18.0;
49686;PMS5003;36064;38.180;-122.272;2022-12-18T17:20:00;24.0;21.4;
49686;PMS5003;36064;38.180;-122.272;2022-12-18T17:25:00;23.4;22.6;
49686;PMS5003;36064;38.180;-122.272;2022-12-18T17:30:01;24.2;22.6;
49686;PMS5003;36064;38.180;-122.272;2022-12-18T17:35:00;26.2;24.2;
49686;PMS5003;36064;38.180;-122.272;2022-12-18T17:40:01;19.2;18.0;
49686;PMS5003;36064;38.180;-122.272;2022-12-18T17:45:00;14.8;14.2;
49686;PMS5003;36064;38.180;-122.272;2022-12-18T17:50:00;14.8;12.6;
49686;PMS5003;36064;38.180;-122.272;2022-12-18T17:55:00;12.8;12.4;
49686;PMS5003;36064;38.180;-122.272;2022-12-18T18:00:00;11.0;10.4;
49686;PMS5003;36064;38.180;-122.272;2022-12-18T18:05:00;11.8;11.8;
49686;PMS5003;36064;38.180;-122.272;2022-12-18T18:10:00;10.2;9.8;
49686;PMS5003;36064;38.180;-122.272;2022-12-18T18:15:01;14.2;12.4;
49686;PMS5003;36064;38.180;-122.272;2022-12-18T18:20:00;12.4;10.2;
49686;PMS5003;36064;38.180;-122.272;2022-12-18T18:25:00;13.6;12.4;
49686;PMS5003;36064;38.180;-122.272;2022-12-18T18:30:00;11.0;10.4;
49686;PMS5003;36064;38.180;-122.272;2022-12-18T18:35:00;10.6;9.2;
49686;PMS5003;36064;38.180;-122.272;2022-12-18T18:40:00;8.2;7.8;
49686;PMS5003;36064;38.180;-122.272;2022-12-18T18:45:00;10.8;10.4;
49686;PMS5003;36064;38.180;-122.272;2022-12-18T18:50:00;9.8;9.4;
49686;PMS5003;36064;38.180;-122.272;2022-12-18T18:55:01;11.8;10.4;
49686;PMS5003;36064;38.180;-122.272;2022-12-18T19:00:00;12.4;11.8;
49686;PMS5003;36064;38.180;-122.272;2022-12-18T19:05:00;10.8;11.4;
49686;PMS5003;36064;38.180;-122.272;2022-12-18T19:10:00;9.8;7.2;
49686;PMS5003;36064;38.180;-122.272;2022-12-18T19:15:00;10.8;10.2;
49686;PMS5003;36064;38.180;-122.272;2022-12-18T19:20:00;9.8;9.4;
49686;PMS5003;36064;38.180;-122.272;2022-12-18T19:25:00;7.0;10.6;
49686;PMS5003;36064;38.180;-122.272;2022-12-18T19:30:00;17.6;17.4;
49686;PMS5003;36064;38.180;-122.272;2022-12-18T19:35:00;16.8;14.0;
49686;PMS5003;36064;38.180;-122.272;2022-12-18T19:40:00;18.2;17.0;
49686;PMS5003;36064;38.180;-122.272;2022-12-18T19:45:00;21.4;20.8;
49686;PMS5003;36064;38.180;-122.272;2022-12-18T19:50:00;22.4;22.2;
49686;PMS5003;36064;38.180;-122.272;2022-12-18T19:55:00;25.4;25.4;
49686;PMS5003;36064;38.180;-122.272;2022-12-18T20:00:00;28.2;25.0;
49686;PMS5003;36064;38.180;-122.272;2022-12-18T20:05:01;25.8;23.4;
49686;PMS5003;36064;38.180;-122.272;2022-12-18T20:10:01;21.6;19.6;
49686;PMS5003;36064;38.180;-122.272;2022-12-18T20:15:00;25.0;22.4;
49686;PMS5003;36064;38.180;-122.272;2022-12-18T20:20:00;24.0;21.8;
49686;PMS5003;36064;38.180;-122.272;2022-12-18T20:25:00;23.6;21.6;
49686;PMS5003;36064;38.180;-122.272;2022-12-18T20:30:00;23.2;22.0;
49686;PMS5003;36064;38.180;-122.272;2022-12-18T20:35:00;22.6;21.0;
49686;PMS5003;36064;38.180;-122.272;2022-12-18T20:45:00;24.2;23.2;
49686;PMS5003;36064;38.180;-122.272;2022-12-18T20:50:01;24.0;21.2;
49686;PMS5003;36064;38.180;-122.272;2022-12-18T20:55:01;22.6;21.0;
49686;PMS5003;36064;38.180;-122.272;2022-12-18T21:00:01;22.6;21.0;
49686;PMS5003;36064;38.180;-122.272;2022-12-18T21:05:02;22.2;20.8;
49686;PMS5003;36064;38.180;-122.272;2022-12-18T21:10:00;28.2;25.4;
49686;PMS5003;36064;38.180;-122.272;2022-12-18T21:15:01;31.8;28.6;
49686;PMS5003;36064;38.180;-122.272;2022-12-18T21:20:05;32.4;29.8;
49686;PMS5003;36064;38.180;-122.272;2022-12-18T21:25:00;13.4;12.2;
49686;PMS5003;36064;38.180;-122.272;2022-12-18T21:30:03;27.8;25.8;
49686;PMS5003;36064;38.180;-122.272;2022-12-18T21:35:01;24.0;22.4;
49686;PMS5003;36064;38.180;-122.272;2022-12-18T21:40:00;18.2;17.4;
49686;PMS5003;36064;38.180;-122.272;2022-12-18T21:45:00;16.2;15.4;
49686;PMS5003;36064;38.180;-122.272;2022-12-18T21:55:00;14.0;13.8;
49686;PMS5003;36064;38.180;-122.272;2022-12-18T22:00:00;20.45;18.2;
49686;PMS5003;36064;38.180;-122.272;2022-12-18T22:05:00;21.2;20.6;
49686;PMS5003;36064;38.180;-122.272;2022-12-18T22:10:01;19.8;19.8;
49686;PMS5003;36064;38.180;-122.272;2022-12-18T22:15:01;22.2;20.2;
49686;PMS5003;36064;38.180;-122.272;2022-12-18T22:20:00;24.4;22.8;
49686;PMS5003;36064;38.180;-122.272;2022-12-18T22:25:00;22.2;19.2;
49686;PMS5003;36064;38.180;-122.272;2022-12-18T22:30:00;27.0;24.0;
49686;PMS5003;36064;38.180;-122.272;2022-12-18T22:35:01;24.6;22.6;
49686;PMS5003;36064;38.180;-122.272;2022-12-18T22:40:00;20.2;19.4;
49686;PMS5003;36064;38.180;-122.272;2022-12-18T22:45:00;21.92;19.08;
49686;PMS5003;36064;38.180;-122.272;2022-12-18T22:50:00;27.6;25.0;
49686;PMS5003;36064;38.180;-122.272;2022-12-18T22:55:00;22.8;22.0;
49686;PMS5003;36064;38.180;-122.272;2022-12-18T23:00:00;28.0;25.0;
49686;PMS5003;36064;38.180;-122.272;2022-12-18T23:05:00;32.0;29.0;
49686;PMS5003;36064;38.180;-122.272;2022-12-18T23:10:00;29.0;26.8;
49686;PMS5003;36064;38.180;-122.272;2022-12-18T23:15:00;32.2;28.2;
49686;PMS5003;36064;38.180;-122.272;2022-12-18T23:20:00;33.0;28.0;
49686;PMS5003;36064;38.180;-122.272;2022-12-18T23:25:00;32.6;30.0;
49686;PMS5003;36064;38.180;-122.272;2022-12-18T23:30:00;33.0;28.8;
49686;PMS5003;36064;38.180;-122.272;2022-12-18T23:35:00;29.0;26.0;
49686;PMS5003;36064;38.180;-122.272;2022-12-18T23:40:00;30.8;28.0;
49686;PMS5003;36064;38.180;-122.272;2022-12-18T23:45:00;34.0;30.4;
49686;PMS5003;36064;38.180;-122.272;2022-12-18T23:50:00;28.6;26.4;
49686;PMS5003;36064;38.180;-122.272;2022-12-18T23:55:02;31.8;29.2;
